Time,TemperatureF,DewpointF,PressureIn,WindDirection,WindDirectionDegrees,WindSpeedMPH,WindSpeedGustMPH,Humidity,HourlyPrecipIn,Conditions,Clouds,dailyrainin,SoftwareType,DateUTC
2013-05-15 00:06:00,62.7,57.0,30.13,NW,318,0.0,-999.0,82,-99.99,,,0.00,weatherlink.com 1.10,2013-05-15 04:06:00,
2013-05-15 00:21:00,62.3,57.0,30.13,NW,318,0.0,-999.0,82,-99.99,,,0.00,weatherlink.com 1.10,2013-05-15 04:21:00,
2013-05-15 00:36:00,61.9,57.0,30.13,NW,318,0.0,-999.0,83,-99.99,,,0.00,weatherlink.com 1.10,2013-05-15 04:36:00,
2013-05-15 00:51:00,61.6,57.0,30.13,NW,318,0.0,-999.0,84,-99.99,,,0.00,weatherlink.com 1.10,2013-05-15 04:51:00,
2013-05-15 01:06:00,61.4,57.0,30.13,NW,318,0.0,-999.0,84,-99.99,,,0.00,weatherlink.com 1.10,2013-05-15 05:06:00,
2013-05-15 01:21:00,61.2,57.0,30.13,NW,318,0.0,-999.0,85,-99.99,,,0.00,weatherlink.com 1.10,2013-05-15 05:21:00,
2013-05-15 01:36:00,61.0,57.0,30.13,NW,318,0.0,-999.0,85,-99.99,,,0.00,weatherlink.com 1.10,2013-05-15 05:36:00,
2013-05-15 01:51:00,60.7,57.0,30.13,NW,318,1.0,-999.0,86,-99.99,,,0.00,weatherlink.com 1.10,2013-05-15 05:51:00,
2013-05-15 02:06:00,60.7,57.0,30.12,NW,318,1.0,-999.0,86,-99.99,,,0.00,weatherlink.com 1.10,2013-05-15 06:06:00,
2013-05-15 02:21:00,60.7,57.0,30.12,NW,318,0.0,-999.0,86,-99.99,,,0.00,weatherlink.com 1.10,2013-05-15 06:21:00,
2013-05-15 02:36:00,60.7,57.0,30.12,NW,318,0.0,-999.0,87,-99.99,,,0.00,weatherlink.com 1.10,2013-05-15 06:36:00,
2013-05-15 02:51:00,60.4,57.0,30.11,NW,318,0.0,-999.0,87,-99.99,,,0.00,weatherlink.com 1.10,2013-05-15 06:51:00,
2013-05-15 03:06:00,59.9,56.0,30.11,NW,318,0.0,-999.0,87,-99.99,,,0.00,weatherlink.com 1.10,2013-05-15 07:06:00,
2013-05-15 03:21:00,59.5,56.0,30.11,NW,318,0.0,-999.0,87,-99.99,,,0.00,weatherlink.com 1.10,2013-05-15 07:21:00,
2013-05-15 03:36:00,59.1,56.0,30.11,NW,318,0.0,-999.0,88,-99.99,,,0.00,weatherlink.com 1.10,2013-05-15 07:36:00,
2013-05-15 03:51:00,58.7,56.0,30.12,NW,318,0.0,-999.0,89,-99.99,,,0.00,weatherlink.com 1.10,2013-05-15 07:51:00,
2013-05-15 04:06:00,58.4,55.0,30.12,NW,318,0.0,-999.0,89,-99.99,,,0.00,weatherlink.com 1.10,2013-05-15 08:06:00,
2013-05-15 04:21:00,58.0,55.0,30.12,NW,318,0.0,-999.0,90,-99.99,,,0.00,weatherlink.com 1.10,2013-05-15 08:21:00,
2013-05-15 04:36:00,57.8,55.0,30.12,NW,318,0.0,-999.0,90,-99.99,,,0.00,weatherlink.com 1.10,2013-05-15 08:36:00,
2013-05-15 04:51:00,58.3,56.0,30.12,West,276,0.0,-999.0,90,-99.99,,,0.00,weatherlink.com 1.10,2013-05-15 08:51:00,
2013-05-15 05:06:00,59.3,56.0,30.12,WSW,257,0.0,-999.0,88,-99.99,,,0.00,weatherlink.com 1.10,2013-05-15 09:06:00,
2013-05-15 05:21:00,60.3,56.0,30.12,WNW,297,0.0,-999.0,86,-99.99,,,0.00,weatherlink.com 1.10,2013-05-15 09:21:00,
2013-05-15 05:36:00,60.7,56.0,30.12,WNW,297,1.0,-999.0,85,-99.99,,,0.00,weatherlink.com 1.10,2013-05-15 09:36:00,
2013-05-15 05:51:00,60.7,56.0,30.12,WNW,294,0.0,-999.0,85,-99.99,,,0.00,weatherlink.com 1.10,2013-05-15 09:51:00,
2013-05-15 06:06:00,60.4,56.0,30.13,WNW,294,0.0,-999.0,85,-99.99,,,0.00,weatherlink.com 1.10,2013-05-15 10:06:00,
2013-05-15 06:21:00,60.1,56.0,30.13,WNW,294,0.0,-999.0,85,-99.99,,,0.00,weatherlink.com 1.10,2013-05-15 10:21:00,
2013-05-15 06:36:00,59.6,56.0,30.13,WNW,294,0.0,-999.0,86,-99.99,,,0.00,weatherlink.com 1.10,2013-05-15 10:36:00,
2013-05-15 06:51:00,59.1,55.0,30.13,WNW,294,0.0,-999.0,87,-99.99,,,0.00,weatherlink.com 1.10,2013-05-15 10:51:00,
2013-05-15 07:06:00,58.7,55.0,30.14,WNW,294,0.0,-999.0,88,-99.99,,,0.00,weatherlink.com 1.10,2013-05-15 11:06:00,
2013-05-15 07:36:00,58.4,55.0,30.14,WNW,294,0.0,-999.0,89,-99.99,,,0.00,weatherlink.com 1.10,2013-05-15 11:36:00,
2013-05-15 08:07:00,58.9,56.0,30.15,WNW,294,1.0,-999.0,91,-99.99,,,0.00,weatherlink.com 1.10,2013-05-15 12:07:00,
2013-05-15 08:22:00,59.7,57.0,30.14,WNW,293,0.0,-999.0,92,-99.99,,,0.00,weatherlink.com 1.10,2013-05-15 12:22:00,
2013-05-15 08:37:00,61.2,58.0,30.15,WNW,291,1.0,-999.0,88,-99.99,,,0.00,weatherlink.com 1.10,2013-05-15 12:37:00,
2013-05-15 09:07:00,65.7,59.0,30.16,NW,308,0.0,-999.0,80,-99.99,,,0.00,weatherlink.com 1.10,2013-05-15 13:07:00,
2013-05-15 09:22:00,67.4,59.0,30.16,West,277,2.0,-999.0,75,-99.99,,,0.00,weatherlink.com 1.10,2013-05-15 13:22:00,
2013-05-15 09:37:00,68.8,60.0,30.16,NE,36,2.0,-999.0,73,-99.99,,,0.00,weatherlink.com 1.10,2013-05-15 13:37:00,
2013-05-15 09:52:00,70.8,59.0,30.16,WNW,299,7.0,-999.0,66,-99.99,,,0.00,weatherlink.com 1.10,2013-05-15 13:52:00,
2013-05-15 10:07:00,71.8,60.0,30.16,WNW,286,2.0,-999.0,67,-99.99,,,0.00,weatherlink.com 1.10,2013-05-15 14:07:00,
2013-05-15 10:52:00,74.0,60.0,30.15,South,180,0.0,-999.0,62,-99.99,,,0.00,weatherlink.com 1.10,2013-05-15 14:52:00,
2013-05-15 11:07:00,74.6,60.0,30.15,WNW,295,1.0,-999.0,61,-99.99,,,0.00,weatherlink.com 1.10,2013-05-15 15:07:00,
2013-05-15 11:22:00,75.1,60.0,30.14,West,269,2.0,-999.0,60,-99.99,,,0.00,weatherlink.com 1.10,2013-05-15 15:22:00,
2013-05-15 11:37:00,76.5,60.0,30.14,WNW,294,2.0,-999.0,57,-99.99,,,0.00,weatherlink.com 1.10,2013-05-15 15:37:00,
2013-05-15 11:52:00,77.2,60.0,30.14,East,99,2.0,-999.0,55,-99.99,,,0.00,weatherlink.com 1.10,2013-05-15 15:52:00,
2013-05-15 12:22:00,78.4,60.0,30.13,South,189,3.0,-999.0,54,-99.99,,,0.00,weatherlink.com 1.10,2013-05-15 16:22:00,
2013-05-15 12:37:00,79.1,61.0,30.13,NW,312,8.0,-999.0,54,-99.99,,,0.00,weatherlink.com 1.10,2013-05-15 16:37:00,
2013-05-15 12:52:00,79.6,60.0,30.12,NNW,331,0.0,-999.0,52,-99.99,,,0.00,weatherlink.com 1.10,2013-05-15 16:52:00,
2013-05-15 13:07:00,80.0,61.0,30.12,WSW,258,2.0,-999.0,52,-99.99,,,0.00,weatherlink.com 1.10,2013-05-15 17:07:00,
2013-05-15 13:22:00,81.1,59.0,30.11,West,268,3.0,-999.0,47,-99.99,,,0.00,weatherlink.com 1.10,2013-05-15 17:22:00,
2013-05-15 13:37:00,80.7,59.0,30.11,NW,323,1.0,-999.0,48,-99.99,,,0.00,weatherlink.com 1.10,2013-05-15 17:37:00,
2013-05-15 13:53:00,82.2,60.0,30.10,South,191,1.0,-999.0,47,-99.99,,,0.00,weatherlink.com 1.10,2013-05-15 17:53:00,
2013-05-15 14:08:00,82.1,61.0,30.09,SSE,168,6.0,-999.0,49,-99.99,,,0.00,weatherlink.com 1.10,2013-05-15 18:08:00,
2013-05-15 14:53:00,83.2,58.0,30.08,North,2,8.0,-999.0,43,-99.99,,,0.00,weatherlink.com 1.10,2013-05-15 18:53:00,
2013-05-15 15:08:00,84.0,60.0,30.07,WSW,247,1.0,-999.0,44,-99.99,,,0.00,weatherlink.com 1.10,2013-05-15 19:08:00,
2013-05-15 15:23:00,83.9,61.0,30.06,NW,318,6.0,-999.0,46,-99.99,,,0.00,weatherlink.com 1.10,2013-05-15 19:23:00,
2013-05-15 15:38:00,83.7,60.0,30.06,North,354,2.0,-999.0,45,-99.99,,,0.00,weatherlink.com 1.10,2013-05-15 19:38:00,
2013-05-15 15:53:00,83.6,57.0,30.05,South,189,6.0,-999.0,41,-99.99,,,0.00,weatherlink.com 1.10,2013-05-15 19:53:00,
2013-05-15 16:08:00,83.5,59.0,30.05,WSW,246,0.0,-999.0,44,-99.99,,,0.00,weatherlink.com 1.10,2013-05-15 20:08:00,
2013-05-15 16:23:00,83.6,59.0,30.04,SW,225,0.0,-999.0,44,-99.99,,,0.00,weatherlink.com 1.10,2013-05-15 20:23:00,
2013-05-15 16:38:00,83.4,59.0,30.03,WNW,283,4.0,-999.0,44,-99.99,,,0.00,weatherlink.com 1.10,2013-05-15 20:38:00,
2013-05-15 16:53:00,83.6,59.0,30.03,NE,38,1.0,-999.0,44,-99.99,,,0.00,weatherlink.com 1.10,2013-05-15 20:53:00,
2013-05-15 17:08:00,83.7,59.0,30.02,North,354,2.0,-999.0,43,-99.99,,,0.00,weatherlink.com 1.10,2013-05-15 21:08:00,
2013-05-15 17:23:00,83.7,59.0,30.02,West,267,2.0,-999.0,43,-99.99,,,0.00,weatherlink.com 1.10,2013-05-15 21:23:00,
2013-05-15 17:38:00,83.0,61.0,30.01,West,279,1.0,-999.0,47,-99.99,,,0.00,weatherlink.com 1.10,2013-05-15 21:38:00,
2013-05-15 18:23:00,82.8,57.0,30.01,West,272,4.0,-999.0,42,-99.99,,,0.00,weatherlink.com 1.10,2013-05-15 22:23:00,
2013-05-15 18:38:00,82.6,57.0,30.00,WNW,287,0.0,-999.0,42,-99.99,,,0.00,weatherlink.com 1.10,2013-05-15 22:38:00,
2013-05-15 18:53:00,82.0,59.0,30.00,West,276,1.0,-999.0,45,-99.99,,,0.00,weatherlink.com 1.10,2013-05-15 22:53:00,
2013-05-15 19:08:00,81.3,60.0,30.01,WSW,254,0.0,-999.0,48,-99.99,,,0.00,weatherlink.com 1.10,2013-05-15 23:08:00,
2013-05-15 19:23:00,80.7,60.0,30.00,WNW,292,4.0,-999.0,49,-99.99,,,0.00,weatherlink.com 1.10,2013-05-15 23:23:00,
2013-05-15 19:53:00,79.1,60.0,30.00,NW,305,0.0,-999.0,53,-99.99,,,0.00,weatherlink.com 1.10,2013-05-15 23:53:00,
2013-05-15 20:08:00,78.0,61.0,30.00,NW,305,0.0,-999.0,56,-99.99,,,0.00,weatherlink.com 1.10,2013-05-16 00:08:00,
2013-05-15 20:38:00,75.4,61.0,30.00,NW,305,0.0,-999.0,62,-99.99,,,0.00,weatherlink.com 1.10,2013-05-16 00:38:00,
2013-05-15 20:53:00,73.9,61.0,30.00,NW,305,0.0,-999.0,64,-99.99,,,0.00,weatherlink.com 1.10,2013-05-16 00:53:00,
2013-05-15 21:08:00,72.4,61.0,30.00,NW,305,0.0,-999.0,68,-99.99,,,0.00,weatherlink.com 1.10,2013-05-16 01:08:00,
2013-05-15 21:23:00,71.2,61.0,30.01,NW,305,0.0,-999.0,70,-99.99,,,0.00,weatherlink.com 1.10,2013-05-16 01:23:00,
2013-05-15 21:38:00,70.1,61.0,30.02,NW,305,0.0,-999.0,73,-99.99,,,0.00,weatherlink.com 1.10,2013-05-16 01:38:00,
2013-05-15 21:53:00,68.9,61.0,30.02,NW,305,0.0,-999.0,76,-99.99,,,0.00,weatherlink.com 1.10,2013-05-16 01:53:00,
2013-05-15 22:08:00,68.1,60.0,30.03,NW,305,0.0,-999.0,76,-99.99,,,0.00,weatherlink.com 1.10,2013-05-16 02:08:00,
2013-05-15 22:23:00,67.5,60.0,30.03,NW,305,0.0,-999.0,78,-99.99,,,0.00,weatherlink.com 1.10,2013-05-16 02:23:00,
2013-05-15 22:38:00,66.9,60.0,30.03,NW,305,0.0,-999.0,79,-99.99,,,0.00,weatherlink.com 1.10,2013-05-16 02:38:00,
2013-05-15 22:53:00,66.3,60.0,30.03,NW,305,0.0,-999.0,81,-99.99,,,0.00,weatherlink.com 1.10,2013-05-16 02:53:00,
2013-05-15 23:08:00,65.6,60.0,30.03,NW,305,0.0,-999.0,81,-99.99,,,0.00,weatherlink.com 1.10,2013-05-16 03:08:00,
2013-05-15 23:23:00,65.1,60.0,30.03,NW,305,0.0,-999.0,83,-99.99,,,0.00,weatherlink.com 1.10,2013-05-16 03:23:00,
2013-05-15 23:38:00,64.7,60.0,30.02,NW,305,0.0,-999.0,84,-99.99,,,0.00,weatherlink.com 1.10,2013-05-16 03:38:00,
2013-05-15 23:53:00,64.2,59.0,30.02,NW,305,0.0,-999.0,84,-99.99,,,0.00,weatherlink.com 1.10,2013-05-16 03:53:00,